Terminal Aerodrome Forecast
Issued by NWS

Home | Current Version | Previous Version | Text Only | Print | Product List | Glossary On
Versions: 1 2 3 4 5 6 7 8 9 10 11 12 13 14 15 16 17 18 19 20
000
FTUS43 KDMX 201131
TAFMCW
TAF
KMCW 201131Z 2012/2112 21011KT P6SM BKN250
     FM201600 21016G23KT P6SM SCT250
     FM210000 23010KT P6SM SCT180
     FM210700 31015KT P6SM SCT200=

USA.gov is the U.S. government's official web portal to all federal, state and local government web resources and services.